Terminal Aerodrome Forecast
Issued by NWS Twin Cities, MN

Home | Current Version | Previous Version | Graphics & Text | Print | Product List | Glossary On
Versions: 1 2 3 4 5 6 7 8 9 10 11 12 13 14 15 16 17 18 19
000
FTUS43 KMPX 101700
TAFSTC
TAF
KSTC 101737Z 1018/1118 17007KT P6SM SKC
     FM102100 18010KT P6SM FEW080 BKN250
     FM110300 17007KT P6SM VCSH SCT050 OVC080 PROB30 1104/1109 4SM
      TSRA OVC035CB
     FM111000 18008KT P6SM SCT040 BKN080=

USA.gov is the U.S. government's official web portal to all federal, state and local government web resources and services.